Hlavní strana
METAR-TAF:

METAR-TAF

Letiště :

Rafha, Saúdská Arábie

zeměpisná šířka: 29-37N, zeměpisná délka: 043-29E, výška: 449 m

Aktuální stav počasí

Zpráva byla vytvořena před 31 minutami, v 00:00 UTC
Severoseverozápadní vítr 4 kt
Teplota 29°C
Vlhkost vzduchu 12%
Tlak 1009 hPa
Viditelnost 10 km a více
Žádná oblačnost pod 1500 m, nevyskytují se cumulonimby.

METAR: OERF 230000Z 33004KT CAVOK 29/M03 Q1009 NOSIG

Čas: 03:31 (00:31 UTC)

Předpověď počasí

Zpráva byla vytvořena před 1 hodinou a 31 minutami, v 23:00 UTC
Předpověď platná od 23 v 00 UTC do 24 v 06 UTC
Severozápadní vítr 6 kt
Viditelnost 10 km a více
Žádná oblačnost pod 1500 m, nevyskytují se cumulonimby.
Změna
od 23 v 06 UTC do 23 v 08 UTC
Severovýchodní vítr 14 kt
Viditelnost: 8000 m

TAF: OERF 222300Z 2300/2406 32006KT CAVOK BECMG 2306/2308 04014KT 8000 NSC

Stav a předpovědi počasí z více než 4 000 letišť (zprávy METAR a TAF).

Červené a žluté tečky na mapě představují dostupné meteorologické stanice.

Když kurzor umístíte na tečku, zobrazí se název stanice.

Pak kliknutím zobrazíte stav a předpověď počasí.

Chcete-li změnit mapu, kliknutím na zelené tlačítko se znaménkem +mapu přiblížíte, kliknutím na zelené tlačítko se znaménkem – mapu oddálíte a kliknutím na zelené šipky přejdete na sousední mapy.


METAR-TAF: